PWSweather.com
Personal Weather Stations
Station Observations
SWHWX01
St AppolinardFR 38160

St AppolinardFR 38160

Lat: 45.191, Lon: 5.268

Elevation: 1460

Station Type: Davis Vantage Pro2 Plus

www.sweetwebhome.com/?show=wxindex

High Low Average
Temperature 62.9°F17.2°F 42.9°F6.1°F 53.0°F11.7°F
Dew Point 49.5°F9.7°F 40.5°F4.7°F 45.4°F7.4°F
Winds 8.3 mph -13.4 mph - Calm Calm 2.7 mph 4.3 mph
Wind Gusts 15.0 mph24.1 mph -- 4.7 mph7.6 mph
Humidity 92% 57% 76%
Pressure 30.08 in1018.60 in 29.98 in1015.20 in -
Precipitation 0.01 in0.30 in - -
Hour Temp Dew Point Humidity Winds Wind Gusts Pressure Precip Precip Rate Daily Precip Total
12:00 AM 47.4°F8.6°C 44.0°F6.7°C 88% 3.7 mph E6.0 kmh E 5.0 mph8.0 kmh 30.04 in1017.3 mb - 0.01 in0.3 mm 0.01 in0.3 mm
12:30 AM 46.9°F8.3°C 43.6°F6.4°C 88% 4.5 mph E7.2 kmh E 5.0 mph8.0 kmh 30.04 in1017.3 mb - 0.00 in0.0 mm 0.01 in0.3 mm
01:00 AM 46.7°F8.2°C 43.4°F6.3°C 88% Calm Calm -- 30.05 in1017.6 mb - 0.00 in0.0 mm 0.01 in0.3 mm
01:30 AM 46.0°F7.8°C 43.6°F6.4°C 91% 2.3 mph E3.7 kmh E 3.0 mph4.8 kmh 30.05 in1017.6 mb - 0.00 in0.0 mm 0.01 in0.3 mm
02:00 AM 46.5°F8.1°C 43.7°F6.5°C 90% 1.7 mph E2.7 kmh E 2.0 mph3.2 kmh 30.05 in1017.6 mb - 0.00 in0.0 mm 0.01 in0.3 mm
02:30 AM 46.4°F8.0°C 43.3°F6.3°C 89% 4.3 mph E6.9 kmh E 5.0 mph8.0 kmh 30.05 in1017.6 mb - 0.00 in0.0 mm 0.01 in0.3 mm
03:00 AM 45.6°F7.6°C 42.8°F6.0°C 90% 0.3 mph E0.5 kmh E 2.0 mph3.2 kmh 30.05 in1017.6 mb - 0.00 in0.0 mm 0.01 in0.3 mm
03:30 AM 45.6°F7.6°C 42.5°F5.8°C 89% Calm Calm 1.0 mph1.6 kmh 30.05 in1017.6 mb - 0.00 in0.0 mm 0.01 in0.3 mm
04:00 AM 44.8°F7.1°C 42.3°F5.7°C 91% 0.3 mph E0.5 kmh E 1.0 mph1.6 kmh 30.05 in1017.6 mb - 0.00 in0.0 mm 0.01 in0.3 mm
04:30 AM 45.9°F7.7°C 43.1°F6.2°C 90% Calm Calm -- 30.05 in1017.6 mb - 0.00 in0.0 mm 0.01 in0.3 mm
05:00 AM 44.1°F6.7°C 41.7°F5.4°C 91% Calm Calm -- 30.05 in1017.6 mb - 0.00 in0.0 mm 0.01 in0.3 mm
05:30 AM 42.9°F6.1°C 40.5°F4.7°C 91% Calm Calm -- 30.05 in1017.6 mb - 0.00 in0.0 mm 0.01 in0.3 mm
06:00 AM 44.5°F6.9°C 42.3°F5.7°C 92% 2.2 mph E3.5 kmh E 3.0 mph4.8 kmh 30.06 in1017.9 mb - 0.00 in0.0 mm 0.01 in0.3 mm
06:30 AM 44.1°F6.7°C 41.6°F5.3°C 91% 0.1 mph E0.2 kmh E 1.0 mph1.6 kmh 30.06 in1017.9 mb - 0.00 in0.0 mm 0.01 in0.3 mm
07:00 AM 43.7°F6.5°C 41.5°F5.3°C 92% Calm Calm 2.0 mph3.2 kmh 30.06 in1017.9 mb - 0.00 in0.0 mm 0.01 in0.3 mm
07:30 AM 45.3°F7.4°C 42.2°F5.7°C 89% 2.3 mph E3.7 kmh E 3.0 mph4.8 kmh 30.08 in1018.6 mb - 0.00 in0.0 mm 0.01 in0.3 mm
08:00 AM 47.2°F8.4°C 43.9°F6.6°C 88% Calm Calm 1.0 mph1.6 kmh 30.08 in1018.6 mb - 0.00 in0.0 mm 0.01 in0.3 mm
08:30 AM 48.3°F9.1°C 43.7°F6.5°C 84% 1.2 mph E1.9 kmh E 2.0 mph3.2 kmh 30.07 in1018.3 mb - 0.00 in0.0 mm 0.01 in0.3 mm
09:00 AM 49.5°F9.7°C 44.2°F6.8°C 82% 1.2 mph E1.9 kmh E 2.0 mph3.2 kmh 30.08 in1018.6 mb - 0.00 in0.0 mm 0.01 in0.3 mm
09:30 AM 51.8°F11.0°C 44.8°F7.1°C 77% Calm Calm 1.0 mph1.6 kmh 30.08 in1018.6 mb - 0.00 in0.0 mm 0.01 in0.3 mm
10:00 AM 52.7°F11.5°C 45.7°F7.6°C 77% 1.0 mph E1.6 kmh E 3.0 mph4.8 kmh 30.08 in1018.6 mb - 0.00 in0.0 mm 0.01 in0.3 mm
10:30 AM 54.3°F12.4°C 46.2°F7.9°C 74% 1.9 mph E3.1 kmh E 3.0 mph4.8 kmh 30.08 in1018.6 mb - 0.00 in0.0 mm 0.01 in0.3 mm
11:00 AM 54.8°F12.7°C 46.6°F8.1°C 74% 2.7 mph E4.3 kmh E 3.0 mph4.8 kmh 30.07 in1018.3 mb - 0.00 in0.0 mm 0.01 in0.3 mm
11:30 AM 55.3°F12.9°C 47.1°F8.4°C 74% 1.6 mph E2.6 kmh E 2.0 mph3.2 kmh 30.06 in1017.9 mb - 0.00 in0.0 mm 0.01 in0.3 mm
12:00 PM 57.6°F14.2°C 48.3°F9.1°C 71% 0.2 mph E0.3 kmh E 1.0 mph1.6 kmh 30.06 in1017.9 mb - 0.00 in0.0 mm 0.01 in0.3 mm
12:30 PM 59.5°F15.3°C 46.0°F7.8°C 61% 2.0 mph E3.2 kmh E 5.0 mph8.0 kmh 30.05 in1017.6 mb - 0.00 in0.0 mm 0.01 in0.3 mm
01:00 PM 60.1°F15.6°C 47.5°F8.6°C 63% 3.9 mph SE6.3 kmh SE 7.0 mph11.3 kmh 30.03 in1016.9 mb - 0.00 in0.0 mm 0.01 in0.3 mm
01:30 PM 60.5°F15.8°C 47.8°F8.8°C 63% 2.3 mph SE3.7 kmh SE 4.0 mph6.4 kmh 30.02 in1016.6 mb - 0.00 in0.0 mm 0.01 in0.3 mm
02:00 PM 60.9°F16.1°C 48.2°F9.0°C 63% 2.7 mph SW4.3 kmh SW 6.0 mph9.7 kmh 30.02 in1016.6 mb - 0.00 in0.0 mm 0.01 in0.3 mm
02:30 PM 61.7°F16.5°C 49.4°F9.7°C 64% 2.6 mph SW4.2 kmh SW 4.0 mph6.4 kmh 30.01 in1016.3 mb - 0.00 in0.0 mm 0.01 in0.3 mm
03:00 PM 62.2°F16.8°C 49.5°F9.7°C 63% 3.1 mph SSW5.0 kmh SSW 6.0 mph9.7 kmh 30.00 in1015.9 mb - 0.00 in0.0 mm 0.01 in0.3 mm
03:30 PM 62.9°F17.2°C 48.8°F9.3°C 60% 2.0 mph SW3.2 kmh SW 5.0 mph8.0 kmh 29.99 in1015.6 mb - 0.00 in0.0 mm 0.01 in0.3 mm
04:00 PM 62.9°F17.2°C 47.4°F8.6°C 57% 2.1 mph SW3.4 kmh SW 5.0 mph8.0 kmh 29.99 in1015.6 mb - 0.00 in0.0 mm 0.01 in0.3 mm
04:30 PM 61.2°F16.2°C 46.8°F8.2°C 59% 4.4 mph SW7.1 kmh SW 8.0 mph12.9 kmh 29.98 in1015.2 mb - 0.00 in0.0 mm 0.01 in0.3 mm
05:00 PM 59.6°F15.3°C 46.6°F8.1°C 62% 7.9 mph SW12.7 kmh SW 15.0 mph24.1 kmh 29.98 in1015.2 mb - 0.00 in0.0 mm 0.01 in0.3 mm
05:30 PM 58.5°F14.7°C 47.1°F8.4°C 66% 4.2 mph WSW6.8 kmh WSW 7.0 mph11.3 kmh 29.98 in1015.2 mb - 0.00 in0.0 mm 0.01 in0.3 mm
06:00 PM 58.0°F14.4°C 47.1°F8.4°C 67% 3.6 mph WSW5.8 kmh WSW 7.0 mph11.3 kmh 29.99 in1015.6 mb - 0.00 in0.0 mm 0.01 in0.3 mm
06:30 PM 57.3°F14.1°C 46.8°F8.2°C 68% 3.9 mph SW6.3 kmh SW 7.0 mph11.3 kmh 30.00 in1015.9 mb - 0.00 in0.0 mm 0.01 in0.3 mm
07:00 PM 56.7°F13.7°C 46.6°F8.1°C 69% 4.9 mph WSW7.9 kmh WSW 8.0 mph12.9 kmh 30.00 in1015.9 mb - 0.00 in0.0 mm 0.01 in0.3 mm
07:30 PM 56.5°F13.6°C 46.5°F8.1°C 69% 4.6 mph WSW7.4 kmh WSW 6.0 mph9.7 kmh 30.01 in1016.3 mb - 0.00 in0.0 mm 0.01 in0.3 mm
08:00 PM 56.3°F13.5°C 46.2°F7.9°C 69% 5.0 mph WSW8.0 kmh WSW 7.0 mph11.3 kmh 30.01 in1016.3 mb - 0.00 in0.0 mm 0.01 in0.3 mm
08:30 PM 56.0°F13.3°C 46.4°F8.0°C 70% 5.5 mph WSW8.9 kmh WSW 9.0 mph14.5 kmh 30.01 in1016.3 mb - 0.00 in0.0 mm 0.01 in0.3 mm
09:00 PM 56.2°F13.4°C 46.9°F8.3°C 71% 3.8 mph WSW6.1 kmh WSW 8.0 mph12.9 kmh 30.01 in1016.3 mb - 0.00 in0.0 mm 0.01 in0.3 mm
09:30 PM 56.3°F13.5°C 47.0°F8.3°C 71% 4.9 mph WSW7.9 kmh WSW 9.0 mph14.5 kmh 30.02 in1016.6 mb - 0.00 in0.0 mm 0.01 in0.3 mm
10:00 PM 56.4°F13.6°C 46.7°F8.2°C 70% 8.3 mph WSW13.4 kmh WSW 11.0 mph17.7 kmh 30.02 in1016.6 mb - 0.00 in0.0 mm 0.01 in0.3 mm
10:30 PM 56.5°F13.6°C 46.8°F8.2°C 70% 4.1 mph SW6.6 kmh SW 10.0 mph16.1 kmh 30.02 in1016.6 mb - 0.00 in0.0 mm 0.01 in0.3 mm
11:00 PM 55.3°F12.9°C 47.9°F8.8°C 76% 3.9 mph WSW6.3 kmh WSW 10.0 mph16.1 kmh 30.02 in1016.6 mb - 0.00 in0.0 mm 0.01 in0.3 mm
11:30 PM 55.1°F12.8°C 48.4°F9.1°C 78% 6.0 mph WSW9.7 kmh WSW 9.0 mph14.5 kmh 30.02 in1016.6 mb - 0.00 in0.0 mm 0.01 in0.3 mm